Time;durP1;ratioP1;P1;durP2;ratioP2;P2;SDS_P1;SDS_P2;PMS_P1;PMS_P2;Temp;Humidity;BMP_temperature;BMP_pressure;BME280_temperature;BME280_humidity;BME280_pressure;Samples;Min_cycle;Max_cycle;Signal;HPM_P1;HPM_P2
2021/03/25 00:00:49;;;;;;;23.77;13.75;;;23.50;31.10;;;;;;5062228;28;20085;-76
2021/03/25 00:03:16;;;;;;;25.15;13.10;;;23.40;31.00;;;;;;5062001;28;20035;-76
2021/03/25 00:05:42;;;;;;;19.95;12.15;;;23.40;31.00;;;;;;5062410;28;20443;-76
2021/03/25 00:08:10;;;;;;;25.08;12.02;;;23.40;31.10;;;;;;5083531;28;20100;-76
2021/03/25 00:10:36;;;;;;;27.95;14.75;;;23.40;31.10;;;;;;5078903;28;20031;-76
2021/03/25 00:13:02;;;;;;;29.83;15.13;;;23.40;31.10;;;;;;5079783;28;20043;-76
2021/03/25 00:15:28;;;;;;;25.55;14.32;;;23.40;31.20;;;;;;5076077;28;20503;-76
2021/03/25 00:17:53;;;;;;;28.13;13.93;;;23.40;31.20;;;;;;5065959;28;20028;-76
2021/03/25 00:20:19;;;;;;;29.85;14.73;;;23.40;31.20;;;;;;5094071;28;20482;-76
2021/03/25 00:22:45;;;;;;;27.98;13.95;;;23.30;31.10;;;;;;5093312;28;20024;-77
2021/03/25 00:25:16;;;;;;;28.95;14.05;;;23.30;31.20;;;;;;5088782;28;20446;-76
2021/03/25 00:27:42;;;;;;;25.50;13.38;;;23.30;31.20;;;;;;5081507;28;20031;-76
2021/03/25 00:30:09;;;;;;;28.48;13.95;;;23.30;31.20;;;;;;5052353;28;20040;-76
2021/03/25 00:32:34;;;;;;;25.38;12.85;;;23.30;31.30;;;;;;5074127;28;20016;-76
2021/03/25 00:35:00;;;;;;;26.05;14.32;;;23.20;31.20;;;;;;5093875;28;20050;-76
2021/03/25 00:37:26;;;;;;;27.08;13.57;;;23.20;31.30;;;;;;5069480;28;20444;-75
2021/03/25 00:39:52;;;;;;;23.45;14.18;;;23.20;31.20;;;;;;5058260;28;20051;-76
2021/03/25 00:42:17;;;;;;;28.13;14.07;;;23.20;31.30;;;;;;5075702;28;20065;-76
2021/03/25 00:44:43;;;;;;;39.38;16.55;;;23.20;31.30;;;;;;5080239;28;20035;-76
2021/03/25 00:47:09;;;;;;;33.10;17.38;;;23.20;31.30;;;;;;5075133;28;20042;-76
2021/03/25 00:49:35;;;;;;;32.75;16.48;;;23.20;31.30;;;;;;5074892;28;20040;-75
2021/03/25 00:52:01;;;;;;;35.38;17.02;;;23.20;31.30;;;;;;5092604;28;20016;-75
2021/03/25 00:54:27;;;;;;;37.60;19.63;;;23.20;31.40;;;;;;5058658;28;20028;-76
2021/03/25 00:56:52;;;;;;;37.10;18.17;;;23.10;31.30;;;;;;5092891;28;20478;-76
2021/03/25 00:59:18;;;;;;;31.63;16.25;;;23.10;31.30;;;;;;5074458;28;20043;-76
2021/03/25 01:01:44;;;;;;;34.30;18.92;;;23.10;31.30;;;;;;5092043;28;20023;-76
2021/03/25 01:04:18;;;;;;;33.47;16.70;;;23.10;31.30;;;;;;5092963;28;20024;-75
2021/03/25 01:06:44;;;;;;;34.97;18.48;;;23.10;31.30;;;;;;5093267;28;20099;-75
2021/03/25 01:09:22;;;;;;;34.17;19.42;;;23.10;31.40;;;;;;5060793;28;20490;-75
2021/03/25 01:11:47;;;;;;;35.05;17.63;;;23.00;31.30;;;;;;5051391;28;20051;-76
2021/03/25 01:14:13;;;;;;;43.80;20.65;;;23.00;31.40;;;;;;5066714;28;20539;-76
2021/03/25 01:16:43;;;;;;;36.10;19.67;;;23.00;31.40;;;;;;5057579;28;20134;-76
2021/03/25 01:19:15;;;;;;;40.45;22.08;;;23.00;31.50;;;;;;5054758;28;20040;-76
2021/03/25 01:21:40;;;;;;;39.05;21.13;;;23.00;31.40;;;;;;5057598;28;20035;-76
2021/03/25 01:24:07;;;;;;;38.15;19.90;;;23.00;31.40;;;;;;5065033;28;20492;-76
2021/03/25 01:26:32;;;;;;;38.55;19.40;;;23.00;31.40;;;;;;5074219;28;20074;-76
2021/03/25 01:29:00;;;;;;;40.33;20.98;;;23.00;31.40;;;;;;5078985;28;20039;-76
2021/03/25 01:31:29;;;;;;;35.50;19.83;;;23.00;31.30;;;;;;5071829;28;20038;-76
2021/03/25 01:33:55;;;;;;;38.67;21.15;;;23.00;31.30;;;;;;5062895;28;20028;-75
2021/03/25 01:36:21;;;;;;;42.53;22.27;;;23.00;31.30;;;;;;5074070;28;20020;-75
2021/03/25 01:38:47;;;;;;;45.30;24.08;;;23.00;31.30;;;;;;5091557;28;20020;-75
2021/03/25 01:41:12;;;;;;;36.72;20.70;;;23.00;31.30;;;;;;5072353;28;20426;-75
2021/03/25 01:43:40;;;;;;;41.10;21.90;;;23.00;31.30;;;;;;5077757;28;20457;-75
2021/03/25 01:46:26;;;;;;;40.47;21.73;;;23.00;31.30;;;;;;5040886;28;20138;-75
2021/03/25 01:48:53;;;;;;;42.95;22.02;;;23.00;31.30;;;;;;5056562;28;20123;-75
2021/03/25 01:51:43;;;;;;;37.15;20.33;;;23.00;31.30;;;;;;5060095;28;20502;-75
2021/03/25 01:54:23;;;;;;;32.92;18.20;;;23.00;31.40;;;;;;5088788;28;20032;-75
2021/03/25 01:56:52;;;;;;;36.30;20.17;;;23.00;31.40;;;;;;5069256;28;20098;-75
2021/03/25 01:59:24;;;;;;;34.90;19.77;;;22.90;31.40;;;;;;5091985;28;20042;-75
2021/03/25 02:01:54;;;;;;;41.35;20.52;;;22.90;31.40;;;;;;5091913;28;20024;-75
2021/03/25 02:04:44;;;;;;;44.15;21.90;;;22.90;31.40;;;;;;5058410;28;20042;-75
2021/03/25 02:07:39;;;;;;;32.55;18.17;;;22.90;31.40;;;;;;5068373;28;20020;-74
2021/03/25 02:10:22;;;;;;;35.95;19.48;;;22.90;31.40;;;;;;5087574;28;20036;-75
2021/03/25 02:12:57;;;;;;;37.58;19.33;;;22.90;31.50;;;;;;5090874;28;20032;-75
2021/03/25 02:15:39;;;;;;;33.45;18.35;;;22.90;31.50;;;;;;5070130;28;20081;-74
2021/03/25 02:18:22;;;;;;;33.80;17.50;;;22.90;31.50;;;;;;5054660;28;20037;-75
2021/03/25 02:21:01;;;;;;;33.88;17.60;;;22.90;31.50;;;;;;5072083;28;20028;-75
2021/03/25 02:23:39;;;;;;;33.42;17.38;;;22.90;31.50;;;;;;5070721;28;20052;-75
2021/03/25 02:26:08;;;;;;;33.78;17.15;;;22.90;31.50;;;;;;5073049;28;20047;-74
2021/03/25 02:29:01;;;;;;;28.95;16.65;;;22.80;31.50;;;;;;5069177;28;20024;-75
2021/03/25 02:31:29;;;;;;;38.33;19.05;;;22.80;31.60;;;;;;5084865;28;20032;-76
2021/03/25 02:33:56;;;;;;;30.88;17.42;;;22.80;31.60;;;;;;5056545;28;20032;-75
2021/03/25 02:36:40;;;;;;;30.92;16.85;;;22.80;31.60;;;;;;5056214;28;20080;-76
2021/03/25 02:39:08;;;;;;;37.22;19.80;;;22.80;31.60;;;;;;5056137;28;20016;-75
2021/03/25 02:41:42;;;;;;;39.60;20.15;;;22.80;31.60;;;;;;5060920;28;20032;-76
2021/03/25 02:44:19;;;;;;;36.30;20.35;;;22.80;31.70;;;;;;5079645;28;20028;-76
2021/03/25 02:46:50;;;;;;;36.83;21.05;;;22.80;32.40;;;;;;5073197;28;20032;-76
2021/03/25 02:49:17;;;;;;;32.63;19.80;;;22.70;32.30;;;;;;5056852;28;20059;-76
2021/03/25 02:51:53;;;;;;;34.45;19.10;;;22.70;31.60;;;;;;5037460;28;20384;-76
2021/03/25 02:54:18;;;;;;;32.97;17.15;;;22.70;31.70;;;;;;5090416;28;20035;-76
2021/03/25 02:56:52;;;;;;;33.13;17.80;;;22.70;31.70;;;;;;5054948;28;20016;-76
2021/03/25 02:59:33;;;;;;;29.08;17.10;;;22.70;31.70;;;;;;5058531;28;20016;-76
2021/03/25 03:02:07;;;;;;;33.15;16.33;;;22.70;31.70;;;;;;5061880;28;20483;-76
2021/03/25 03:04:34;;;;;;;36.08;18.25;;;22.70;31.80;;;;;;5051481;28;20027;-76
2021/03/25 03:07:14;;;;;;;31.52;17.30;;;22.70;31.70;;;;;;5061717;28;20115;-76
2021/03/25 03:09:45;;;;;;;35.45;17.88;;;22.70;31.70;;;;;;5070389;28;20070;-76
2021/03/25 03:12:34;;;;;;;26.67;15.95;;;22.60;32.40;;;;;;5059743;28;20077;-76
2021/03/25 03:15:09;;;;;;;31.00;16.52;;;22.70;31.80;;;;;;5063282;28;20033;-75
2021/03/25 03:17:43;;;;;;;32.28;16.10;;;22.60;31.70;;;;;;5057701;28;20509;-76
2021/03/25 03:20:09;;;;;;;31.65;16.75;;;22.60;31.80;;;;;;5061766;28;20028;-75
2021/03/25 03:22:35;;;;;;;29.08;15.43;;;22.60;32.40;;;;;;5099693;28;20046;-75
2021/03/25 03:25:13;;;;;;;30.95;17.05;;;22.60;31.80;;;;;;5066933;28;20407;-75
2021/03/25 03:27:48;;;;;;;25.00;14.73;;;22.60;31.80;;;;;;5071915;28;20503;-75
2021/03/25 03:30:32;;;;;;;25.80;14.40;;;22.60;31.80;;;;;;5054925;28;20032;-76
2021/03/25 03:33:14;;;;;;;29.13;15.18;;;22.60;31.90;;;;;;5062840;28;20028;-77
2021/03/25 03:35:50;;;;;;;30.35;15.20;;;22.60;31.80;;;;;;5080633;28;20032;-76
2021/03/25 03:38:22;;;;;;;24.67;14.35;;;22.60;31.90;;;;;;5053718;28;20021;-76
2021/03/25 03:40:49;;;;;;;26.58;14.30;;;22.60;31.90;;;;;;5056912;28;20119;-76
2021/03/25 03:43:14;;;;;;;29.20;14.50;;;22.60;31.80;;;;;;5072645;28;20020;-75
2021/03/25 03:46:20;;;;;;;25.65;14.00;;;22.60;31.80;;;;;;5058570;28;20459;-74
2021/03/25 03:48:51;;;;;;;26.73;13.70;;;22.60;32.40;;;;;;5028402;28;20037;-74
2021/03/25 03:51:34;;;;;;;23.13;12.63;;;22.60;31.80;;;;;;4998148;28;20030;-74
2021/03/25 03:54:00;;;;;;;31.77;14.85;;;22.60;31.80;;;;;;5000570;28;20048;-73
2021/03/25 03:56:41;;;;;;;24.95;14.10;;;22.60;31.70;;;;;;5015436;28;20021;-74
2021/03/25 03:59:30;;;;;;;27.67;14.02;;;22.60;31.70;;;;;;5031748;28;20040;-74
2021/03/25 04:02:04;;;;;;;26.15;14.05;;;22.60;31.80;;;;;;5015362;28;20053;-76
2021/03/25 04:04:32;;;;;;;26.13;13.63;;;22.60;31.80;;;;;;5014872;28;20033;-76
2021/03/25 04:07:00;;;;;;;24.17;13.73;;;22.60;31.70;;;;;;5011941;28;20449;-76
2021/03/25 04:09:49;;;;;;;26.23;14.77;;;22.60;31.70;;;;;;4998259;28;20111;-74
2021/03/25 04:12:16;;;;;;;27.45;13.68;;;22.60;31.70;;;;;;5014204;28;20034;-75
2021/03/25 04:14:45;;;;;;;25.70;13.52;;;22.60;31.80;;;;;;5014402;28;20068;-76
2021/03/25 04:17:11;;;;;;;26.45;14.60;;;22.60;31.80;;;;;;5015213;28;20037;-75
2021/03/25 04:19:39;;;;;;;25.40;13.73;;;22.60;31.70;;;;;;5060150;28;20038;-76
2021/03/25 04:22:16;;;;;;;24.30;13.27;;;22.60;31.80;;;;;;5060237;28;20018;-75
2021/03/25 04:24:50;;;;;;;29.55;14.65;;;22.60;31.80;;;;;;5043689;28;20052;-76
2021/03/25 04:27:24;;;;;;;31.17;13.88;;;22.60;31.80;;;;;;5065595;28;20032;-75
2021/03/25 04:30:00;;;;;;;22.37;12.63;;;22.60;31.90;;;;;;5074284;28;20036;-74
2021/03/25 04:32:26;;;;;;;35.00;13.65;;;22.60;31.90;;;;;;5077059;28;20028;-74
2021/03/25 04:34:52;;;;;;;27.52;15.25;;;22.60;31.90;;;;;;5075701;28;20020;-76
2021/03/25 04:37:17;;;;;;;30.98;14.90;;;22.60;32.00;;;;;;5075972;28;20034;-76
2021/03/25 04:39:43;;;;;;;22.20;13.43;;;22.60;32.00;;;;;;5060575;28;20415;-76
2021/03/25 04:42:09;;;;;;;29.73;14.18;;;22.60;32.00;;;;;;5078342;28;20028;-76
2021/03/25 04:44:48;;;;;;;30.85;15.55;;;22.50;32.00;;;;;;5059169;28;20035;-76
2021/03/25 04:47:22;;;;;;;27.35;15.00;;;22.50;32.00;;;;;;5058373;28;20024;-76
2021/03/25 04:50:26;;;;;;;29.00;14.73;;;22.50;32.00;;;;;;5045157;28;20392;-76
2021/03/25 04:53:18;;;;;;;26.85;13.68;;;22.50;32.00;;;;;;5075393;28;20047;-76
2021/03/25 04:55:43;;;;;;;31.40;16.13;;;22.60;32.10;;;;;;5061223;28;20024;-76
2021/03/25 04:58:09;;;;;;;34.20;17.05;;;22.60;32.80;;;;;;5073144;28;20034;-76
2021/03/25 05:00:44;;;;;;;24.35;11.20;;;22.50;32.10;;;;;;5059830;28;20028;-76
2021/03/25 05:03:23;;;;;;;0.20;0.20;;;22.50;32.20;;;;;;5078304;28;20032;-76
2021/03/25 05:05:48;;;;;;;0.35;0.35;;;22.50;32.20;;;;;;5059477;28;20020;-76
2021/03/25 05:08:42;;;;;;;0.45;0.30;;;22.40;32.30;;;;;;5058194;28;20399;-76
2021/03/25 05:11:18;;;;;;;1.23;1.08;;;22.40;32.40;;;;;;5074116;28;20032;-76
2021/03/25 05:13:44;;;;;;;1.35;0.90;;;22.40;32.50;;;;;;5066424;28;20032;-76
2021/03/25 05:16:28;;;;;;;3.03;1.13;;;22.40;32.60;;;;;;5074838;28;20024;-76
2021/03/25 05:18:56;;;;;;;1.60;0.57;;;22.40;32.60;;;;;;5092741;28;20020;-76
2021/03/25 05:21:34;;;;;;;0.60;0.57;;;22.40;32.70;;;;;;5094986;28;20027;-76
2021/03/25 05:24:38;;;;;;;1.23;0.85;;;22.40;32.70;;;;;;5066393;28;20546;-76
2021/03/25 05:27:13;;;;;;;0.95;0.75;;;22.50;32.80;;;;;;5085639;28;20396;-76
2021/03/25 05:29:39;;;;;;;1.13;0.75;;;22.50;32.70;;;;;;5083801;28;20036;-75
2021/03/25 05:32:17;;;;;;;0.77;0.65;;;22.50;32.70;;;;;;5054135;28;20036;-75
2021/03/25 05:34:43;;;;;;;2.65;1.17;;;22.50;32.70;;;;;;5066192;28;20028;-76
2021/03/25 05:37:08;;;;;;;2.17;0.88;;;22.50;32.80;;;;;;5085388;28;20451;-75
2021/03/25 05:39:34;;;;;;;1.15;0.90;;;22.50;32.80;;;;;;5064832;28;20087;-75
2021/03/25 05:42:11;;;;;;;0.65;0.43;;;22.50;32.70;;;;;;5074782;28;20040;-75
2021/03/25 05:44:45;;;;;;;1.20;0.70;;;22.50;32.70;;;;;;5099392;28;20059;-75
2021/03/25 05:47:20;;;;;;;1.05;0.65;;;22.60;32.90;;;;;;5088183;28;20020;-75
2021/03/25 05:50:01;;;;;;;3.40;0.43;;;22.60;32.90;;;;;;5094193;28;20050;-76
2021/03/25 05:52:29;;;;;;;0.35;0.35;;;22.60;32.90;;;;;;5056667;28;20407;-75
2021/03/25 05:58:28;;;;;;;3.08;0.73;;;22.60;32.80;;;;;;5044920;28;20064;-76
2021/03/25 06:01:23;;;;;;;0.60;0.60;;;22.60;32.80;;;;;;5028191;28;20056;-75
2021/03/25 06:04:13;;;;;;;1.98;0.50;;;22.60;32.80;;;;;;5018757;28;20033;-76
2021/03/25 06:07:18;;;;;;;2.00;1.17;;;22.60;32.70;;;;;;5040973;28;20072;-76
2021/03/25 06:10:09;;;;;;;1.33;0.65;;;22.70;32.80;;;;;;5042625;28;20032;-76
2021/03/25 06:13:06;;;;;;;1.08;0.55;;;22.70;32.90;;;;;;5030320;28;20041;-75
2021/03/25 06:16:09;;;;;;;1.15;0.40;;;22.70;33.00;;;;;;5045468;28;20037;-76
2021/03/25 06:18:50;;;;;;;0.32;0.32;;;22.70;33.10;;;;;;5042849;28;20041;-76
2021/03/25 06:21:27;;;;;;;0.22;0.22;;;22.70;33.10;;;;;;5028605;28;20025;-75
2021/03/25 06:24:30;;;;;;;0.63;0.57;;;22.70;33.10;;;;;;5048233;28;20078;-74
2021/03/25 06:27:08;;;;;;;1.20;0.52;;;22.80;33.20;;;;;;5040166;28;20026;-74
2021/03/25 06:29:35;;;;;;;1.63;0.60;;;22.80;33.10;;;;;;5073882;28;20036;-74
2021/03/25 06:32:14;;;;;;;0.25;0.25;;;22.90;33.10;;;;;;5073528;28;20107;-74
2021/03/25 06:34:45;;;;;;;1.17;0.43;;;22.90;33.10;;;;;;5072650;28;20051;-74
2021/03/25 06:37:15;;;;;;;2.35;0.80;;;22.90;33.10;;;;;;5089121;28;20487;-74
2021/03/25 06:40:03;;;;;;;0.80;0.63;;;23.00;33.00;;;;;;5080742;28;20202;-74
2021/03/25 06:42:32;;;;;;;1.73;1.10;;;23.00;33.00;;;;;;5079105;28;20044;-74
2021/03/25 06:45:21;;;;;;;1.95;1.25;;;23.00;32.90;;;;;;5057890;28;20028;-74
2021/03/25 06:47:47;;;;;;;0.55;0.30;;;23.00;32.80;;;;;;5066957;28;20021;-74
2021/03/25 06:50:23;;;;;;;0.10;0.10;;;23.00;32.90;;;;;;5087579;28;20030;-74
2021/03/25 06:52:49;;;;;;;0.30;0.30;;;23.10;32.80;;;;;;5070012;28;20036;-74
2021/03/25 06:55:18;;;;;;;0.20;0.20;;;23.00;32.80;;;;;;5058648;28;20016;-74
2021/03/25 06:58:04;;;;;;;1.27;0.45;;;23.10;32.80;;;;;;5057589;28;20055;-74
2021/03/25 07:00:33;;;;;;;0.60;0.57;;;23.10;32.80;;;;;;5072292;28;20411;-75
2021/03/25 07:02:58;;;;;;;1.55;0.77;;;23.10;32.80;;;;;;5072999;28;20262;-75
2021/03/25 07:05:29;;;;;;;0.30;0.30;;;23.10;32.80;;;;;;5059130;28;20032;-74
2021/03/25 07:08:03;;;;;;;0.88;0.40;;;23.10;32.70;;;;;;5079717;28;20077;-75
2021/03/25 07:10:29;;;;;;;0.98;0.80;;;23.10;32.70;;;;;;5056707;28;20028;-74
2021/03/25 07:13:02;;;;;;;2.47;0.90;;;23.10;32.70;;;;;;5093504;28;20082;-74
2021/03/25 07:15:28;;;;;;;6.93;1.85;;;23.10;32.70;;;;;;5072078;28;20506;-74
2021/03/25 07:17:53;;;;;;;0.45;0.30;;;23.10;32.50;;;;;;5073770;28;20036;-73
2021/03/25 07:20:33;;;;;;;4.30;0.65;;;23.20;32.60;;;;;;5057254;28;20032;-75
2021/03/25 07:23:13;;;;;;;1.13;0.50;;;23.20;32.50;;;;;;5082085;28;20027;-74
2021/03/25 07:25:46;;;;;;;4.70;0.65;;;23.30;32.50;;;;;;5081262;28;20035;-75
2021/03/25 07:28:19;;;;;;;0.52;0.47;;;23.30;32.40;;;;;;5075237;28;20028;-74
2021/03/25 07:30:55;;;;;;;1.30;0.75;;;23.30;32.40;;;;;;5077393;28;21285;-74
2021/03/25 07:33:22;;;;;;;1.65;0.63;;;23.30;32.40;;;;;;5077534;28;20024;-74
2021/03/25 07:36:14;;;;;;;12.57;0.95;;;23.30;32.40;;;;;;5077982;28;20020;-74
2021/03/25 07:38:40;;;;;;;0.90;0.73;;;23.40;32.40;;;;;;5072303;28;20039;-75
2021/03/25 07:41:24;;;;;;;2.28;1.15;;;23.30;32.40;;;;;;5059383;28;20052;-76
2021/03/25 07:43:55;;;;;;;0.43;0.43;;;23.30;32.40;;;;;;5074927;28;20028;-76
2021/03/25 07:46:28;;;;;;;1.88;0.90;;;23.40;32.50;;;;;;5065020;28;20036;-76
2021/03/25 07:49:06;;;;;;;0.95;0.52;;;23.30;32.50;;;;;;5074163;28;20032;-76
2021/03/25 07:51:54;;;;;;;0.85;0.57;;;23.30;32.50;;;;;;5073454;28;20024;-76
2021/03/25 07:54:25;;;;;;;0.70;0.70;;;23.30;32.50;;;;;;5095071;28;20032;-76
2021/03/25 07:57:05;;;;;;;0.47;0.47;;;23.30;32.50;;;;;;5086700;28;20059;-76
2021/03/25 07:59:32;;;;;;;0.63;0.40;;;23.30;32.60;;;;;;5086762;28;20084;-75
2021/03/25 08:01:58;;;;;;;1.10;0.85;;;23.30;32.70;;;;;;5091280;28;20058;-76
2021/03/25 08:04:33;;;;;;;1.77;0.75;;;23.30;32.70;;;;;;5084272;28;20051;-75
2021/03/25 08:07:08;;;;;;;1.20;0.67;;;23.30;32.70;;;;;;5072156;28;20032;-76
2021/03/25 08:10:00;;;;;;;0.88;0.30;;;23.30;33.20;;;;;;5060726;28;20630;-76
2021/03/25 08:12:31;;;;;;;1.40;0.85;;;23.40;32.60;;;;;;5072736;28;20040;-76
2021/03/25 08:15:07;;;;;;;5.72;0.68;;;23.50;32.50;;;;;;5108149;28;20031;-76
2021/03/25 08:18:15;;;;;;;0.75;0.60;;;23.50;32.50;;;;;;5084500;28;20055;-76
2021/03/25 08:21:05;;;;;;;2.20;0.63;;;23.50;32.40;;;;;;4991258;28;20041;-76
2021/03/25 08:24:18;;;;;;;4.47;0.98;;;23.60;32.40;;;;;;4984800;28;20033;-76
2021/03/25 08:27:06;;;;;;;2.70;1.70;;;23.60;32.30;;;;;;4924121;29;20508;-76
2021/03/25 08:29:46;;;;;;;0.50;0.50;;;23.60;32.40;;;;;;4919972;29;20052;-76
2021/03/25 08:32:23;;;;;;;0.50;0.50;;;23.60;32.40;;;;;;4909373;29;20071;-77
2021/03/25 08:35:14;;;;;;;3.83;1.30;;;23.60;32.40;;;;;;4903571;29;20645;-76
2021/03/25 08:37:49;;;;;;;4.28;1.25;;;23.60;32.40;;;;;;4932881;29;20063;-76
2021/03/25 08:40:22;;;;;;;3.75;1.45;;;23.60;32.50;;;;;;4935036;29;20075;-76
2021/03/25 08:42:53;;;;;;;5.45;1.55;;;23.60;32.70;;;;;;4915775;29;20043;-76
2021/03/25 08:45:28;;;;;;;11.15;1.55;;;23.60;32.70;;;;;;4901756;29;20440;-76
2021/03/25 08:48:04;;;;;;;2.80;1.23;;;23.60;32.80;;;;;;4914369;29;20046;-76
2021/03/25 08:50:57;;;;;;;1.05;0.70;;;23.60;32.80;;;;;;4922111;29;20063;-76
2021/03/25 08:53:38;;;;;;;1.70;1.15;;;23.60;32.80;;;;;;4917397;29;20468;-76
2021/03/25 08:56:27;;;;;;;2.28;0.85;;;23.60;32.80;;;;;;4931392;29;20046;-76
2021/03/25 08:58:57;;;;;;;0.75;0.50;;;23.60;33.00;;;;;;4888711;29;20109;-76
2021/03/25 09:01:44;;;;;;;1.35;0.63;;;23.60;32.80;;;;;;4894194;28;20088;-76
2021/03/25 09:04:10;;;;;;;1.38;0.45;;;23.60;32.70;;;;;;4977565;28;20077;-76
2021/03/25 09:06:40;;;;;;;0.60;0.60;;;23.70;32.70;;;;;;4957423;28;20129;-76
2021/03/25 09:10:04;;;;;;;0.95;0.73;;;23.70;32.70;;;;;;4971458;28;20039;-76
2021/03/25 09:12:30;;;;;;;1.48;0.85;;;23.70;32.60;;;;;;4894445;29;20046;-76
2021/03/25 09:14:57;;;;;;;2.67;1.45;;;23.80;32.60;;;;;;4877988;29;20029;-76
2021/03/25 09:17:25;;;;;;;0.88;0.70;;;23.80;32.60;;;;;;4883613;29;20037;-76
2021/03/25 09:19:52;;;;;;;0.50;0.50;;;23.80;32.60;;;;;;4878932;29;20055;-76
2021/03/25 09:22:36;;;;;;;0.47;0.40;;;23.80;33.20;;;;;;4896508;29;20039;-76
2021/03/25 09:25:20;;;;;;;3.10;0.55;;;23.80;32.50;;;;;;4898764;29;20036;-76
2021/03/25 09:28:01;;;;;;;1.38;0.63;;;23.90;32.50;;;;;;4888712;29;20129;-76
2021/03/25 09:30:34;;;;;;;0.28;0.28;;;23.90;32.40;;;;;;4883419;29;20048;-76
2021/03/25 09:33:36;;;;;;;0.65;0.60;;;23.90;32.40;;;;;;4875059;29;20603;-77
2021/03/25 09:36:31;;;;;;;0.85;0.32;;;24.00;32.50;;;;;;4929151;28;20166;-75
2021/03/25 09:38:57;;;;;;;0.73;0.47;;;24.00;32.40;;;;;;4955997;28;20118;-76
2021/03/25 09:41:25;;;;;;;1.50;0.45;;;24.10;32.40;;;;;;4970273;28;20149;-76
2021/03/25 09:44:09;;;;;;;1.60;0.75;;;24.10;32.40;;;;;;5056123;28;20168;-76
2021/03/25 09:46:58;;;;;;;0.35;0.35;;;24.20;32.30;;;;;;5079885;28;20411;-76
2021/03/25 09:49:27;;;;;;;1.80;0.73;;;24.20;32.30;;;;;;5073723;28;20036;-75
2021/03/25 09:52:12;;;;;;;1.08;0.75;;;24.30;32.30;;;;;;5078749;28;20051;-76
2021/03/25 09:54:37;;;;;;;1.25;0.63;;;24.30;32.30;;;;;;5083377;28;20043;-76
2021/03/25 09:57:18;;;;;;;0.40;0.40;;;24.40;32.30;;;;;;5091301;28;20029;-76
2021/03/25 09:59:51;;;;;;;1.52;0.20;;;24.40;32.10;;;;;;5082334;28;20024;-75
2021/03/25 10:02:47;;;;;;;0.65;0.28;;;24.40;32.10;;;;;;5093686;28;20391;-73
2021/03/25 10:05:24;;;;;;;3.88;0.70;;;24.50;32.10;;;;;;5099234;28;20148;-73
2021/03/25 10:07:51;;;;;;;0.85;0.63;;;24.50;32.00;;;;;;5087010;28;20036;-74
2021/03/25 10:10:44;;;;;;;1.02;0.95;;;24.50;32.10;;;;;;5053246;28;20465;-73
2021/03/25 10:13:14;;;;;;;3.20;1.33;;;24.60;32.10;;;;;;5086125;28;20028;-76
2021/03/25 10:15:53;;;;;;;0.70;0.68;;;24.60;32.10;;;;;;5089619;28;20028;-76
2021/03/25 10:18:24;;;;;;;1.55;1.10;;;24.60;32.00;;;;;;5073908;28;20028;-76
2021/03/25 10:20:51;;;;;;;4.57;1.10;;;24.60;31.90;;;;;;5088724;28;20027;-77
2021/03/25 10:26:43;;;;;;;4.57;0.60;;;24.60;31.90;;;;;;5085436;28;20031;-76
2021/03/25 10:29:16;;;;;;;1.20;0.70;;;24.60;32.00;;;;;;5064825;28;20398;-76
2021/03/25 10:31:53;;;;;;;2.35;1.35;;;24.60;32.00;;;;;;5088097;28;20031;-76
2021/03/25 10:34:30;;;;;;;0.38;0.38;;;24.60;32.10;;;;;;5064243;28;20102;-76
2021/03/25 10:36:58;;;;;;;1.65;0.80;;;24.60;32.20;;;;;;5075441;28;20028;-76
2021/03/25 10:39:24;;;;;;;2.88;0.80;;;24.60;32.20;;;;;;5072345;28;20035;-76
2021/03/25 10:41:49;;;;;;;1.52;1.42;;;24.60;32.30;;;;;;5087175;28;20021;-76
2021/03/25 10:44:16;;;;;;;2.13;1.48;;;24.60;32.40;;;;;;5062877;28;20125;-76
2021/03/25 10:46:42;;;;;;;1.88;0.90;;;24.60;32.40;;;;;;5095978;28;20024;-76
2021/03/25 10:49:16;;;;;;;1.55;1.08;;;24.50;33.10;;;;;;5073531;28;20062;-75
2021/03/25 10:51:42;;;;;;;0.52;0.52;;;24.50;32.40;;;;;;5075788;28;20371;-76
2021/03/25 10:54:36;;;;;;;1.27;0.55;;;24.50;32.40;;;;;;5047604;28;20083;-76
2021/03/25 10:57:35;;;;;;;0.30;0.30;;;24.50;32.40;;;;;;5056062;28;20032;-76
2021/03/25 11:00:29;;;;;;;1.17;0.73;;;24.60;32.40;;;;;;5050179;28;20036;-76
2021/03/25 11:02:55;;;;;;;0.30;0.28;;;24.60;32.40;;;;;;5004810;28;20504;-76
2021/03/25 11:05:25;;;;;;;0.65;0.30;;;24.60;32.50;;;;;;5010439;28;20044;-75
2021/03/25 11:07:56;;;;;;;0.95;0.20;;;24.60;32.50;;;;;;5013341;28;20200;-76
2021/03/25 11:10:30;;;;;;;1.80;0.77;;;24.60;32.50;;;;;;4978121;28;20038;-76
2021/03/25 11:13:07;;;;;;;1.75;0.47;;;24.60;32.50;;;;;;5010670;28;20018;-76
2021/03/25 11:15:34;;;;;;;0.32;0.32;;;24.60;32.50;;;;;;4994557;28;20034;-76
2021/03/25 11:18:20;;;;;;;0.52;0.52;;;24.60;32.50;;;;;;4994508;28;20025;-76
2021/03/25 11:20:46;;;;;;;5.15;1.27;;;24.60;32.60;;;;;;4986466;28;20058;-76
2021/03/25 11:23:16;;;;;;;0.63;0.40;;;24.60;32.60;;;;;;5007075;28;20066;-76
2021/03/25 11:25:42;;;;;;;1.17;0.80;;;24.50;32.70;;;;;;5006628;28;20490;-76
2021/03/25 11:28:12;;;;;;;1.15;0.85;;;24.50;32.70;;;;;;5009116;28;20150;-76
2021/03/25 11:30:42;;;;;;;0.38;0.35;;;24.50;32.80;;;;;;4994311;28;20026;-76
2021/03/25 11:33:44;;;;;;;0.22;0.22;;;24.50;32.90;;;;;;4987683;28;20410;-76
2021/03/25 11:36:10;;;;;;;2.28;0.98;;;24.40;32.90;;;;;;5007265;28;20046;-76
2021/03/25 11:38:38;;;;;;;4.22;1.10;;;24.40;33.00;;;;;;5006814;28;20061;-76
2021/03/25 11:41:08;;;;;;;0.52;0.52;;;24.40;33.00;;;;;;5032196;28;20132;-76
2021/03/25 11:44:09;;;;;;;1.77;0.82;;;24.40;33.00;;;;;;5032797;28;20040;-76
2021/03/25 11:46:49;;;;;;;1.17;0.88;;;24.40;33.10;;;;;;4990761;28;20039;-76
2021/03/25 11:49:19;;;;;;;0.70;0.70;;;24.30;33.10;;;;;;4976079;28;20134;-75
2021/03/25 11:51:49;;;;;;;0.82;0.30;;;24.30;33.20;;;;;;4958465;28;20034;-76
2021/03/25 11:54:20;;;;;;;1.02;0.70;;;24.30;33.90;;;;;;4963060;28;20420;-76
2021/03/25 11:56:49;;;;;;;0.70;0.70;;;24.30;33.30;;;;;;4950511;28;20039;-77
2021/03/25 11:59:17;;;;;;;0.95;0.50;;;24.20;33.30;;;;;;4969766;28;20113;-76
2021/03/25 12:01:43;;;;;;;2.80;0.60;;;24.20;33.30;;;;;;4990386;28;20098;-76
2021/03/25 12:04:14;;;;;;;1.10;0.88;;;24.20;33.40;;;;;;4972334;28;20043;-77
2021/03/25 12:06:58;;;;;;;0.20;0.20;;;24.20;33.40;;;;;;4990456;28;20034;-76
2021/03/25 12:09:23;;;;;;;0.32;0.32;;;24.10;33.50;;;;;;4996191;28;20046;-76
2021/03/25 12:11:49;;;;;;;0.50;0.50;;;24.10;33.50;;;;;;5013386;28;20598;-76
2021/03/25 12:14:16;;;;;;;0.47;0.30;;;24.10;33.60;;;;;;4996663;28;20525;-76
2021/03/25 12:16:42;;;;;;;0.75;0.52;;;24.10;33.60;;;;;;5033402;28;20121;-76
2021/03/25 12:19:08;;;;;;;2.20;1.48;;;24.10;33.60;;;;;;5028504;28;20533;-76
2021/03/25 12:21:35;;;;;;;0.93;0.90;;;24.10;33.60;;;;;;4996721;28;20026;-76
2021/03/25 12:24:01;;;;;;;1.73;0.85;;;24.10;33.60;;;;;;5093550;28;20042;-76
2021/03/25 12:26:27;;;;;;;1.67;0.82;;;24.10;33.70;;;;;;5060163;28;20040;-76
2021/03/25 12:28:53;;;;;;;0.55;0.32;;;24.10;34.20;;;;;;5076668;28;20020;-76
2021/03/25 12:31:26;;;;;;;1.23;0.38;;;24.20;34.20;;;;;;5074707;28;20020;-76
2021/03/25 12:33:51;;;;;;;4.38;1.02;;;24.20;33.40;;;;;;5060083;28;20032;-76
2021/03/25 12:36:17;;;;;;;1.08;0.82;;;24.30;33.50;;;;;;5069277;28;20644;-78
2021/03/25 12:38:43;;;;;;;0.85;0.70;;;24.30;33.40;;;;;;5060472;28;20085;-77
2021/03/25 12:41:16;;;;;;;1.08;0.93;;;24.30;33.40;;;;;;5075126;28;20036;-77
2021/03/25 12:43:41;;;;;;;0.80;0.40;;;24.30;33.30;;;;;;5076512;28;20028;-76
2021/03/25 12:46:08;;;;;;;0.28;0.28;;;24.30;33.30;;;;;;5093653;28;20357;-76
2021/03/25 12:48:37;;;;;;;2.85;0.57;;;24.30;33.30;;;;;;5075203;28;20491;-76
2021/03/25 12:51:06;;;;;;;0.38;0.32;;;24.30;33.40;;;;;;5055854;28;20036;-77
2021/03/25 12:53:31;;;;;;;0.82;0.60;;;24.30;33.40;;;;;;5068329;28;20033;-77
2021/03/25 12:55:57;;;;;;;0.65;0.63;;;24.40;33.40;;;;;;5090631;28;20087;-77
2021/03/25 12:58:34;;;;;;;0.30;0.22;;;24.40;33.40;;;;;;5072607;28;20031;-77
2021/03/25 13:01:11;;;;;;;0.80;0.80;;;24.40;33.30;;;;;;5072924;28;20384;-77
2021/03/25 13:03:37;;;;;;;0.75;0.25;;;24.50;33.40;;;;;;5042028;28;20031;-78
2021/03/25 13:06:04;;;;;;;0.68;0.63;;;24.50;33.30;;;;;;5075422;28;20496;-77
2021/03/25 13:08:30;;;;;;;0.82;0.63;;;24.50;33.30;;;;;;5073270;28;20044;-77
2021/03/25 13:10:56;;;;;;;2.30;0.77;;;24.50;33.20;;;;;;5039673;28;20089;-77
2021/03/25 13:13:21;;;;;;;0.28;0.10;;;24.60;33.20;;;;;;5091532;28;20024;-78
2021/03/25 13:15:47;;;;;;;0.80;0.52;;;24.60;33.10;;;;;;5075583;28;20107;-74
2021/03/25 13:18:13;;;;;;;1.27;1.13;;;24.60;33.10;;;;;;5094050;28;20028;-73
2021/03/25 13:20:39;;;;;;;3.28;0.93;;;24.60;33.70;;;;;;5073833;28;20043;-72